KAPG/APG METAR and TAF weather

Enter ICAO airport designator
Station Type Date Time Source
KAPG METAR 2020/07/03 12:58 UTC NOAA

KAPG 031258Z AUTO 35003KT 10SM CLR 29/19 A2988 RMK AO2 SLP121 T02850189 $


Station Type Date Time Source
KAPG Decoded METAR 2020/07/03 12:58 UTC NOAA

Phillips Army Air Field / Aberdeen, MD, United States (KAPG) 39-28N 076-10W
Jul 03, 2020 - 08:58 AM EDT / 2020.07.03 1258 UTC
Wind: from the N (350 degrees) at 3 MPH (3 KT):0
Visibility: 10 mile(s):0
Sky conditions: clear
Temperature: 83.3 F (28.5 C)
Dew Point: 66.0 F (18.9 C)
Relative Humidity: 56%
Pressure (altimeter): 29.88 in. Hg (1011 hPa)
ob: KAPG 031258Z AUTO 35003KT 10SM CLR 29/19 A2988 RMK AO2 SLP121 T02850189
cycle: 13

Station Type Date Time Source
KAPG TAF UTC NOAA

Error!

Example: see airport list